Time;durP1;ratioP1;P1;durP2;ratioP2;P2;SDS_P1;SDS_P2;PMS_P1;PMS_P2;Temp;Humidity;BMP_temperature;BMP_pressure;BME280_temperature;BME280_humidity;BME280_pressure;Samples;Min_cycle;Max_cycle;Signal;HPM_P1;HPM_P2
2021/12/27 00:01:17;;;;;;;8.95;7.18;;;;;;;9.55;65.28;101553.81;5050215;27;102220;-51
2021/12/27 00:03:43;;;;;;;7.13;6.43;;;;;;;9.55;65.16;101570.94;5047941;27;102331;-51
2021/12/27 00:06:10;;;;;;;8.82;6.72;;;;;;;9.55;65.61;101570.94;5037415;27;103865;-50
2021/12/27 00:08:39;;;;;;;9.35;7.10;;;;;;;9.55;65.03;101561.97;5045708;27;102108;-51
2021/12/27 00:11:06;;;;;;;8.35;6.43;;;;;;;9.56;65.47;101566.38;5037914;27;102493;-50
2021/12/27 00:13:33;;;;;;;8.55;7.13;;;;;;;9.54;65.32;101554.91;5043562;27;102307;-50
2021/12/27 00:16:02;;;;;;;8.63;6.60;;;;;;;9.54;65.01;101549.47;5042010;27;104196;-50
2021/12/27 00:18:29;;;;;;;8.05;6.47;;;;;;;9.54;65.70;101555.72;5050678;27;102059;-51
2021/12/27 00:20:55;;;;;;;8.60;6.32;;;;;;;9.55;65.51;101548.38;5050173;27;102277;-50
2021/12/27 00:23:22;;;;;;;9.65;7.13;;;;;;;9.56;65.58;101547.34;5046662;27;102180;-51
2021/12/27 00:25:49;;;;;;;8.77;6.60;;;;;;;9.54;65.58;101542.13;5041372;27;103973;-51
2021/12/27 00:28:16;;;;;;;9.60;7.15;;;;;;;9.55;65.10;101541.06;5043167;27;102642;-50
2021/12/27 00:30:42;;;;;;;7.35;6.43;;;;;;;9.54;65.25;101549.47;5037085;27;102954;-50
2021/12/27 00:33:10;;;;;;;7.85;5.93;;;;;;;9.54;65.40;101541.31;5035926;27;102599;-50
2021/12/27 00:35:37;;;;;;;8.70;6.43;;;;;;;9.54;65.43;101546.75;5044657;27;103921;-51
2021/12/27 00:38:04;;;;;;;7.63;5.95;;;;;;;9.54;65.65;101549.47;5046345;27;102718;-50
2021/12/27 00:40:30;;;;;;;10.25;5.88;;;;;;;9.53;65.89;101542.38;5039721;27;102527;-51
2021/12/27 00:42:57;;;;;;;8.27;5.63;;;;;;;9.54;65.37;101554.91;5045748;27;102286;-51
2021/12/27 00:45:24;;;;;;;7.82;6.00;;;;;;;9.55;65.30;101546.50;5050995;27;109108;-51
2021/12/27 00:47:51;;;;;;;6.95;5.70;;;;;;;9.55;65.41;101559.25;5045878;27;102494;-52
2021/12/27 00:50:18;;;;;;;9.00;6.43;;;;;;;9.54;65.25;101554.91;5047261;27;102603;-50
2021/12/27 00:52:46;;;;;;;8.95;6.50;;;;;;;9.53;65.84;101550.53;5046861;27;102111;-51
2021/12/27 00:55:14;;;;;;;9.55;6.53;;;;;;;9.53;65.01;101554.09;5037896;27;103917;-50
2021/12/27 00:57:41;;;;;;;7.30;5.95;;;;;;;9.54;65.88;101554.91;5037556;27;102268;-51
2021/12/27 01:00:11;;;;;;;7.95;6.07;;;;;;;9.54;65.36;101552.19;5051275;27;102354;-50
2021/12/27 01:02:37;;;;;;;7.93;6.20;;;;;;;9.53;65.91;101558.69;5039512;27;102180;-51
2021/12/27 01:05:05;;;;;;;7.95;6.13;;;;;;;9.53;65.72;101545.09;5039806;27;103999;-51
2021/12/27 01:07:35;;;;;;;7.80;6.30;;;;;;;9.53;65.34;101537.78;5041563;27;102257;-51
2021/12/27 01:15:33;;;;;;;9.45;6.90;;;;;;;9.53;65.64;101536.97;5036611;27;103779;-51
2021/12/27 01:17:57;;;;;;;7.47;5.85;;;;;;;9.52;65.10;101535.28;5040893;27;102363;-50
2021/12/27 01:20:24;;;;;;;10.27;6.32;;;;;;;9.54;65.50;101538.59;5036539;27;102822;-51
2021/12/27 01:22:53;;;;;;;7.40;6.07;;;;;;;9.53;65.44;101531.53;5038736;27;102450;-51
2021/12/27 01:25:20;;;;;;;7.32;5.90;;;;;;;9.53;65.07;101537.78;5041606;27;104120;-50
2021/12/27 01:27:47;;;;;;;6.80;5.47;;;;;;;9.52;65.63;101530.69;5045772;27;102512;-50
2021/12/27 01:30:18;;;;;;;6.70;6.00;;;;;;;9.52;65.70;101535.28;5053166;27;102159;-50
2021/12/27 01:32:50;;;;;;;7.07;5.32;;;;;;;9.53;65.38;101528.81;5041518;27;103411;-51
2021/12/27 01:35:17;;;;;;;6.38;5.40;;;;;;;9.51;64.88;101531.75;5042820;27;103881;-51
2021/12/27 01:37:44;;;;;;;8.68;5.80;;;;;;;9.52;64.99;101532.56;5046405;27;102221;-51
2021/12/27 01:40:14;;;;;;;9.10;6.22;;;;;;;9.51;65.33;101534.47;5040790;27;102414;-51
2021/12/27 01:42:58;;;;;;;8.57;5.88;;;;;;;9.52;65.52;101516.25;5040676;27;102114;-51
2021/12/27 01:45:25;;;;;;;7.15;5.72;;;;;;;9.52;65.75;101510.84;5045805;27;103901;-50
2021/12/27 01:47:51;;;;;;;8.20;5.90;;;;;;;9.52;65.26;101505.41;5044264;27;106656;-51
2021/12/27 01:50:18;;;;;;;7.32;5.50;;;;;;;9.51;65.42;101503.75;5040296;27;102144;-51
2021/12/27 01:52:46;;;;;;;10.43;5.88;;;;;;;9.50;65.25;101502.13;5038852;27;103467;-51
2021/12/27 01:55:14;;;;;;;7.95;5.47;;;;;;;9.51;64.97;101495.59;5040448;27;103918;-51
2021/12/27 01:57:40;;;;;;;8.57;5.28;;;;;;;9.50;65.54;101504.84;5035118;27;102529;-51
2021/12/27 02:00:08;;;;;;;7.53;5.78;;;;;;;9.50;65.46;101510.28;5050138;27;103738;-51
2021/12/27 02:02:35;;;;;;;6.53;4.88;;;;;;;9.50;65.29;101513.00;5049059;27;103675;-51
2021/12/27 02:05:02;;;;;;;6.82;5.05;;;;;;;9.50;64.89;101504.84;5038575;27;103957;-51
2021/12/27 02:07:29;;;;;;;7.63;5.28;;;;;;;9.49;65.67;101509.44;5036919;27;102150;-51
2021/12/27 02:10:02;;;;;;;6.85;5.13;;;;;;;9.50;65.57;101515.69;5035871;27;102187;-50
2021/12/27 02:12:36;;;;;;;7.93;5.53;;;;;;;9.48;65.62;101510.50;5036164;27;102432;-51
2021/12/27 02:15:07;;;;;;;7.50;5.30;;;;;;;9.49;65.35;101514.06;5037441;27;103989;-51
2021/12/27 02:17:35;;;;;;;5.55;4.55;;;;;;;9.48;64.97;101506.97;5037815;27;102286;-51
2021/12/27 02:20:08;;;;;;;7.65;5.22;;;;;;;9.48;64.82;101512.38;5042180;27;101951;-50
2021/12/27 02:22:35;;;;;;;6.15;4.95;;;;;;;9.48;65.61;101512.38;5041855;27;102312;-50
2021/12/27 02:25:05;;;;;;;7.05;5.25;;;;;;;9.46;64.89;101514.53;5022523;27;103761;-51
2021/12/27 02:27:31;;;;;;;6.88;5.05;;;;;;;9.48;65.64;101523.25;5049903;27;102105;-51
2021/12/27 02:29:57;;;;;;;6.57;4.93;;;;;;;9.47;65.49;101521.63;5038861;27;103006;-51
2021/12/27 02:32:24;;;;;;;7.05;4.93;;;;;;;9.46;65.17;101520.81;5037629;27;102137;-50
2021/12/27 02:34:50;;;;;;;7.15;4.45;;;;;;;9.46;65.09;101519.97;5042526;27;104012;-50
2021/12/27 02:37:18;;;;;;;7.30;5.40;;;;;;;9.46;65.69;101518.09;5043592;27;102131;-50
2021/12/27 02:39:45;;;;;;;6.05;4.75;;;;;;;9.46;65.39;101519.97;5037883;27;102263;-51
2021/12/27 02:42:16;;;;;;;6.93;5.20;;;;;;;9.45;64.93;101518.31;5042455;27;102250;-50
2021/12/27 02:44:42;;;;;;;5.18;4.65;;;;;;;9.46;65.01;101517.25;5046986;27;103911;-51
2021/12/27 02:47:09;;;;;;;5.55;4.45;;;;;;;9.45;65.54;101518.31;5037210;27;103643;-50
2021/12/27 02:49:35;;;;;;;6.72;4.82;;;;;;;9.44;65.39;101517.50;5035942;27;102712;-51
2021/12/27 02:52:01;;;;;;;6.57;4.82;;;;;;;9.45;65.63;101518.31;5038931;27;102838;-51
2021/12/27 02:54:29;;;;;;;6.20;5.15;;;;;;;9.45;65.41;101512.88;5025315;27;104118;-50
2021/12/27 02:56:55;;;;;;;7.47;5.47;;;;;;;9.45;65.08;101513.72;5038419;27;102718;-51
2021/12/27 02:59:22;;;;;;;6.90;4.88;;;;;;;9.45;65.22;101510.16;5043844;27;102493;-50
2021/12/27 03:01:48;;;;;;;7.65;4.90;;;;;;;9.45;65.54;101515.59;5040849;27;102720;-51
2021/12/27 03:04:15;;;;;;;6.65;4.82;;;;;;;9.44;64.93;101514.78;5037177;27;103914;-50
2021/12/27 03:06:41;;;;;;;6.57;5.22;;;;;;;9.44;65.07;101513.97;5043441;27;102297;-51
2021/12/27 03:09:07;;;;;;;5.88;5.28;;;;;;;9.44;65.65;101517.50;5038683;27;102379;-50
2021/12/27 03:11:35;;;;;;;6.75;4.95;;;;;;;9.44;64.92;101505.81;5046041;27;103138;-51
2021/12/27 03:14:02;;;;;;;7.65;5.72;;;;;;;9.44;65.45;101511.25;5043352;27;103924;-51
2021/12/27 03:16:31;;;;;;;5.55;4.80;;;;;;;9.44;65.13;101505.81;5046448;27;102271;-50
2021/12/27 03:18:58;;;;;;;6.35;5.15;;;;;;;9.44;65.04;101500.38;5042086;27;102292;-50
2021/12/27 03:21:25;;;;;;;6.22;4.90;;;;;;;9.44;65.31;101497.66;5049240;27;102276;-50
2021/12/27 03:23:52;;;;;;;5.50;4.82;;;;;;;9.44;64.56;101505.81;5036997;27;103948;-51
2021/12/27 03:26:19;;;;;;;5.57;4.90;;;;;;;9.45;64.70;101502.00;5038635;27;102179;-51
2021/12/27 03:28:47;;;;;;;7.88;5.30;;;;;;;9.44;65.19;101494.94;5047446;27;102774;-51
2021/12/27 03:31:15;;;;;;;6.03;4.72;;;;;;;9.45;65.02;101491.13;5040166;27;102809;-51
2021/12/27 03:33:45;;;;;;;6.20;4.63;;;;;;;9.43;65.21;101483.25;5037541;27;104096;-51
2021/12/27 03:36:12;;;;;;;7.07;5.18;;;;;;;9.44;64.93;101475.91;5045639;27;102658;-50
2021/12/27 03:38:40;;;;;;;7.75;5.75;;;;;;;9.43;65.15;101477.00;5037828;27;104742;-50
2021/12/27 03:41:09;;;;;;;6.10;5.05;;;;;;;9.43;65.25;101477.81;5036548;27;102176;-50
2021/12/27 03:43:36;;;;;;;5.35;4.82;;;;;;;9.43;65.10;101482.44;5039100;27;104329;-50
2021/12/27 03:46:04;;;;;;;6.10;4.70;;;;;;;9.44;65.42;101481.34;5037415;27;102264;-50
2021/12/27 03:48:31;;;;;;;7.60;5.33;;;;;;;9.44;64.68;101475.91;5040962;27;102055;-51
2021/12/27 03:50:57;;;;;;;7.78;4.95;;;;;;;9.43;65.30;101474.28;5045894;27;102615;-51
2021/12/27 03:53:24;;;;;;;7.70;5.30;;;;;;;9.43;64.67;101477.00;5040556;27;104277;-50
2021/12/27 03:55:53;;;;;;;6.85;5.57;;;;;;;9.43;65.34;101485.16;5053412;27;102437;-51
2021/12/27 03:58:57;;;;;;;5.82;5.10;;;;;;;9.43;65.34;101482.44;5052071;27;101940;-51
2021/12/27 04:01:16;;;;;;;7.30;5.38;;;;;;;9.43;65.48;101487.88;5033700;27;102684;-51
2021/12/27 04:03:44;;;;;;;7.88;5.65;;;;;;;9.42;64.72;101486.22;5035955;27;103905;-50
2021/12/27 04:06:11;;;;;;;8.30;5.38;;;;;;;9.42;65.02;101489.75;5039869;27;102345;-51
2021/12/27 04:08:40;;;;;;;6.40;5.15;;;;;;;9.42;64.69;101488.94;5040899;27;102498;-51
2021/12/27 04:11:07;;;;;;;7.57;5.30;;;;;;;9.42;64.66;101494.38;5043304;27;102246;-51
2021/12/27 04:13:33;;;;;;;7.45;5.35;;;;;;;9.41;64.77;101490.81;5040732;27;104202;-51
2021/12/27 04:16:00;;;;;;;8.45;5.68;;;;;;;9.41;64.99;101498.97;5054604;27;102092;-51
2021/12/27 04:18:28;;;;;;;7.40;5.95;;;;;;;9.43;65.04;101506.88;5041738;27;102226;-50
2021/12/27 04:20:55;;;;;;;7.95;5.40;;;;;;;9.42;65.04;101507.97;5038660;27;102711;-50
2021/12/27 04:23:22;;;;;;;10.45;5.40;;;;;;;9.41;64.63;101500.84;5041326;27;104154;-51
2021/12/27 04:25:50;;;;;;;7.57;5.28;;;;;;;9.42;65.21;101510.69;5038952;27;102275;-51
2021/12/27 04:28:19;;;;;;;7.10;5.38;;;;;;;9.42;65.22;101513.38;5038502;27;102382;-51
2021/12/27 04:30:47;;;;;;;7.55;5.38;;;;;;;9.41;64.71;101515.25;5038435;27;102238;-50
2021/12/27 04:33:21;;;;;;;8.02;5.55;;;;;;;9.41;65.01;101517.16;5043559;27;103971;-51
2021/12/27 04:35:49;;;;;;;6.57;5.43;;;;;;;9.41;64.85;101522.59;5047069;27;102283;-51
2021/12/27 04:38:16;;;;;;;7.50;4.88;;;;;;;9.41;65.33;101533.47;5052774;27;102420;-53
2021/12/27 04:40:46;;;;;;;6.55;5.18;;;;;;;9.41;64.83;101533.47;5051533;27;102272;-50
2021/12/27 04:43:17;;;;;;;6.88;5.80;;;;;;;9.39;64.92;101534.53;5035766;27;104033;-51
2021/12/27 04:45:45;;;;;;;7.35;6.03;;;;;;;9.41;65.20;101533.47;5041465;27;102912;-51
2021/12/27 04:48:12;;;;;;;8.88;5.47;;;;;;;9.41;65.12;101538.88;5041908;27;101990;-51
2021/12/27 04:50:39;;;;;;;7.68;5.00;;;;;;;9.39;64.62;101545.41;5036941;27;102261;-50
2021/12/27 04:53:07;;;;;;;7.38;5.78;;;;;;;9.40;65.19;101535.34;5036482;27;104097;-51
2021/12/27 04:55:34;;;;;;;6.57;5.40;;;;;;;9.41;64.74;101534.28;5036118;27;102337;-51
2021/12/27 04:58:02;;;;;;;8.10;5.57;;;;;;;9.40;65.17;101546.22;5043059;27;102126;-55
2021/12/27 05:00:30;;;;;;;7.77;5.33;;;;;;;9.39;65.42;101545.41;5040867;27;103757;-51
2021/12/27 05:02:58;;;;;;;6.55;5.60;;;;;;;9.39;64.48;101534.53;5043846;27;103946;-51
2021/12/27 05:05:25;;;;;;;7.05;5.35;;;;;;;9.39;65.29;101537.25;5041977;27;102304;-51
2021/12/27 05:08:14;;;;;;;7.13;5.55;;;;;;;9.38;65.07;101532.88;5045203;27;102517;-51
2021/12/27 05:10:41;;;;;;;6.90;5.15;;;;;;;9.40;64.77;101546.22;5037762;27;102384;-51
2021/12/27 05:13:07;;;;;;;7.85;5.22;;;;;;;9.39;65.03;101556.25;5053883;27;104125;-51
2021/12/27 05:15:34;;;;;;;7.72;5.38;;;;;;;9.39;64.89;101569.84;5040075;27;102919;-51
2021/12/27 05:18:00;;;;;;;6.70;5.30;;;;;;;9.38;64.87;101570.94;5041250;27;101982;-51
2021/12/27 05:20:27;;;;;;;7.57;5.40;;;;;;;9.39;65.22;101564.41;5042610;27;102338;-50
2021/12/27 05:22:53;;;;;;;6.88;5.00;;;;;;;9.39;65.18;101569.84;5039083;27;104004;-51
2021/12/27 05:25:21;;;;;;;5.97;5.15;;;;;;;9.39;64.61;101578.00;5042143;27;104682;-51
2021/12/27 05:27:47;;;;;;;6.13;5.18;;;;;;;9.39;64.87;101586.16;5036977;27;102124;-51
2021/12/27 05:30:14;;;;;;;6.22;5.03;;;;;;;9.39;64.97;101591.59;5044077;27;102563;-51
2021/12/27 05:32:43;;;;;;;6.88;4.72;;;;;;;9.40;65.42;101595.13;5048533;27;104079;-50
2021/12/27 05:35:10;;;;;;;6.65;5.28;;;;;;;9.41;64.43;101595.94;5027592;27;102176;-50
2021/12/27 05:37:38;;;;;;;6.07;4.93;;;;;;;9.38;65.04;101611.69;5036557;27;102499;-51
2021/12/27 05:40:07;;;;;;;9.95;5.60;;;;;;;9.40;64.77;101606.00;5046969;27;102505;-51
2021/12/27 05:42:36;;;;;;;7.45;5.53;;;;;;;9.40;64.76;101606.00;5040360;27;103954;-51
2021/12/27 05:45:04;;;;;;;6.20;4.68;;;;;;;9.39;64.44;101607.88;5044595;27;102253;-51
2021/12/27 05:47:31;;;;;;;5.68;5.07;;;;;;;9.38;65.39;101606.25;5032073;27;103714;-51
2021/12/27 05:49:57;;;;;;;6.70;4.50;;;;;;;9.39;64.89;101618.75;4988409;27;1372485;-50
2021/12/27 05:52:24;;;;;;;5.95;4.65;;;;;;;9.39;64.47;101618.75;5039221;27;104124;-51
2021/12/27 05:54:52;;;;;;;6.72;5.28;;;;;;;9.38;65.24;101622.53;5037001;27;102234;-50
2021/12/27 05:57:19;;;;;;;8.40;5.32;;;;;;;9.38;65.37;101611.69;5041040;27;102297;-50
2021/12/27 05:59:47;;;;;;;6.40;5.07;;;;;;;9.38;65.30;101614.38;5035910;27;102272;-50
2021/12/27 06:02:14;;;;;;;6.93;5.53;;;;;;;9.38;64.81;101600.81;5042709;27;103885;-51
2021/12/27 06:04:40;;;;;;;7.97;5.43;;;;;;;9.39;65.14;101612.50;5047519;27;103683;-51
2021/12/27 06:07:06;;;;;;;6.88;4.85;;;;;;;9.38;64.65;101619.00;5042378;27;102542;-50
2021/12/27 06:09:33;;;;;;;5.85;4.90;;;;;;;9.38;64.51;101621.72;5048629;27;102231;-51
2021/12/27 06:11:59;;;;;;;6.93;4.88;;;;;;;9.37;64.52;101615.44;5037853;27;103892;-51
2021/12/27 06:14:26;;;;;;;6.93;4.90;;;;;;;9.37;64.43;101626.31;5043872;27;102301;-51
2021/12/27 06:16:54;;;;;;;6.85;5.00;;;;;;;9.37;64.92;101631.72;5034135;27;102609;-50
2021/12/27 06:19:21;;;;;;;6.43;5.15;;;;;;;9.37;64.75;101637.16;5043954;27;102322;-50
2021/12/27 06:21:47;;;;;;;8.20;5.30;;;;;;;9.37;64.75;101634.44;5042132;27;103958;-51
2021/12/27 06:24:14;;;;;;;6.45;4.80;;;;;;;9.37;65.11;101631.72;5036802;27;102226;-51
2021/12/27 06:26:40;;;;;;;7.53;5.05;;;;;;;9.37;65.23;101639.06;5051856;27;102209;-50
2021/12/27 06:29:07;;;;;;;8.68;5.50;;;;;;;9.37;65.08;101647.22;5037960;27;102391;-51
2021/12/27 06:31:33;;;;;;;5.72;4.95;;;;;;;9.36;65.07;101646.41;5037571;27;104268;-51
2021/12/27 06:34:01;;;;;;;7.88;5.47;;;;;;;9.36;64.88;101646.41;5054263;27;102349;-51
2021/12/27 06:36:27;;;;;;;6.78;5.03;;;;;;;9.36;65.17;101657.25;5053367;27;102195;-50
2021/12/27 06:38:54;;;;;;;7.15;4.95;;;;;;;9.35;65.23;101647.47;5040910;27;102339;-51
2021/12/27 06:41:24;;;;;;;6.78;4.95;;;;;;;9.37;64.12;101652.66;5041745;27;103964;-50
2021/12/27 06:43:51;;;;;;;8.02;5.60;;;;;;;9.36;65.23;101651.00;5045915;27;101999;-50
2021/12/27 06:46:17;;;;;;;5.70;4.72;;;;;;;9.37;64.89;101648.03;5044051;27;102208;-51
2021/12/27 06:48:44;;;;;;;7.70;5.68;;;;;;;9.36;64.49;101649.13;5044711;27;102477;-51
2021/12/27 06:51:12;;;;;;;8.32;5.53;;;;;;;9.38;65.09;101659.75;5044459;27;103903;-51
2021/12/27 06:53:38;;;;;;;10.48;6.57;;;;;;;9.37;64.78;101653.47;5042433;27;102219;-51
2021/12/27 06:56:06;;;;;;;10.23;6.63;;;;;;;9.36;64.39;101657.25;5042386;27;102273;-50
2021/12/27 06:58:32;;;;;;;8.60;6.22;;;;;;;9.35;64.12;101655.63;5040364;27;102200;-51
2021/12/27 07:00:58;;;;;;;8.65;6.20;;;;;;;9.36;65.08;101657.25;5038330;27;103699;-51
2021/12/27 07:03:25;;;;;;;10.05;6.40;;;;;;;9.36;64.37;101651.81;5055805;27;102089;-51
2021/12/27 07:05:51;;;;;;;10.30;6.35;;;;;;;9.36;64.97;101654.53;5053300;27;102310;-51
2021/12/27 07:08:19;;;;;;;10.65;6.75;;;;;;;9.37;64.93;101660.81;5042432;27;104797;-51
2021/12/27 07:10:46;;;;;;;9.30;6.70;;;;;;;9.37;64.75;101648.03;5044793;27;103700;-51
2021/12/27 07:13:12;;;;;;;8.88;6.60;;;;;;;9.36;64.80;101648.28;5053831;27;102109;-50
2021/12/27 07:15:41;;;;;;;10.75;7.15;;;;;;;9.36;64.65;101648.28;5045394;27;102108;-50
2021/12/27 07:18:08;;;;;;;;;;;;;;;9.36;64.36;101645.56;5040804;27;102841;-50
2021/12/27 07:20:36;;;;;;;10.90;6.50;;;;;;;9.36;64.80;101640.13;5039551;27;103968;-50
2021/12/27 07:23:02;;;;;;;9.95;6.20;;;;;;;9.36;64.63;101646.41;5037703;27;102133;-50
2021/12/27 07:25:30;;;;;;;11.60;7.03;;;;;;;9.36;64.64;101646.41;5049660;27;102906;-51
2021/12/27 07:27:56;;;;;;;10.30;6.47;;;;;;;9.35;64.74;101644.75;5045475;27;102341;-50
2021/12/27 07:30:23;;;;;;;10.45;6.55;;;;;;;9.35;64.31;101647.47;5051332;27;104068;-50
2021/12/27 07:32:49;;;;;;;11.55;6.50;;;;;;;9.36;64.68;101656.44;5039438;27;102124;-50
2021/12/27 07:35:16;;;;;;;10.55;6.68;;;;;;;9.35;64.62;101644.75;5039889;27;102699;-50
2021/12/27 07:37:43;;;;;;;9.68;6.40;;;;;;;9.36;64.82;101651.81;5039504;27;102961;-51
2021/12/27 07:40:11;;;;;;;10.70;6.40;;;;;;;9.36;64.59;101649.13;5037808;27;104038;-51
2021/12/27 07:42:39;;;;;;;9.05;6.00;;;;;;;9.36;64.54;101651.81;5039737;27;102196;-51
2021/12/27 07:45:06;;;;;;;10.63;6.37;;;;;;;9.36;64.71;101659.97;5041746;27;102423;-50
2021/12/27 07:47:33;;;;;;;13.25;7.40;;;;;;;9.35;64.61;101655.63;5039548;27;102676;-50
2021/12/27 07:49:59;;;;;;;9.45;5.97;;;;;;;9.35;64.31;101644.75;5036777;27;103695;-51
2021/12/27 07:52:26;;;;;;;10.23;6.18;;;;;;;9.36;64.87;101657.25;5046073;27;105595;-50
2021/12/27 07:54:53;;;;;;;9.85;6.43;;;;;;;9.35;65.14;101644.75;5036561;27;105296;-51
2021/12/27 07:57:19;;;;;;;10.20;6.35;;;;;;;9.35;64.27;101649.38;5041720;27;103849;-50
2021/12/27 07:59:47;;;;;;;10.40;6.63;;;;;;;9.36;65.17;101661.88;5038337;27;104227;-50
2021/12/27 08:02:14;;;;;;;10.15;5.72;;;;;;;9.34;64.36;101659.41;5046332;27;102536;-51
2021/12/27 08:04:41;;;;;;;9.90;6.63;;;;;;;9.35;65.19;101654.81;5041597;27;104040;-51
2021/12/27 08:07:08;;;;;;;53.22;9.02;;;;;;;9.33;64.28;101644.16;5044687;27;102873;-51
2021/12/27 08:09:34;;;;;;;53.55;9.55;;;;;;;9.34;64.67;101653.97;5047977;27;103835;-51
2021/12/27 08:12:01;;;;;;;45.90;12.77;;;;;;;9.32;65.11;101650.66;5042542;27;102744;-52
2021/12/27 08:14:28;;;;;;;22.48;7.50;;;;;;;9.31;64.90;101651.72;5043077;27;102706;-51
2021/12/27 08:16:55;;;;;;;24.85;8.18;;;;;;;9.31;64.77;101649.03;5038887;27;102589;-51
2021/12/27 08:19:22;;;;;;;26.27;7.82;;;;;;;9.31;64.72;101632.72;5041197;27;103715;-54
2021/12/27 08:21:49;;;;;;;37.13;8.45;;;;;;;9.30;64.61;101625.63;5038995;27;102124;-58
2021/12/27 08:24:15;;;;;;;22.45;7.80;;;;;;;9.30;64.75;101636.47;5042641;27;102471;-66
2021/12/27 08:26:42;;;;;;;28.20;9.32;;;;;;;9.27;64.84;101631.56;5042894;27;102349;-50
2021/12/27 08:29:10;;;;;;;24.73;9.00;;;;;;;9.27;64.53;101641.59;5037278;27;103903;-54
2021/12/27 08:31:37;;;;;;;13.45;7.40;;;;;;;9.26;64.40;101637.22;5039128;27;102221;-56
2021/12/27 08:34:04;;;;;;;23.08;7.40;;;;;;;9.23;64.61;101635.81;5043164;27;103544;-56
2021/12/27 08:36:32;;;;;;;45.50;8.40;;;;;;;9.22;64.79;101628.72;5045451;27;102716;-56
2021/12/27 08:38:58;;;;;;;43.25;9.38;;;;;;;9.22;65.17;101628.72;5045688;27;103899;-56
2021/12/27 08:41:28;;;;;;;23.58;7.40;;;;;;;9.20;64.54;101641.72;5040450;27;102376;-56
2021/12/27 08:43:56;;;;;;;29.13;7.90;;;;;;;9.21;64.09;101653.41;5038870;27;101954;-54
2021/12/27 08:46:22;;;;;;;33.27;7.53;;;;;;;9.19;64.19;101642.78;5043638;27;103129;-56
2021/12/27 08:48:49;;;;;;;23.80;6.55;;;;;;;9.19;64.60;101637.34;5045019;27;103903;-55
2021/12/27 08:51:17;;;;;;;25.10;8.13;;;;;;;9.19;64.48;101640.06;5045767;27;102188;-56
2021/12/27 08:53:43;;;;;;;19.25;6.25;;;;;;;9.18;64.20;101638.41;5040357;27;102226;-56
2021/12/27 08:56:10;;;;;;;22.95;6.57;;;;;;;9.18;64.68;101635.69;5038164;27;102326;-56
2021/12/27 08:58:37;;;;;;;16.55;6.32;;;;;;;9.17;64.92;101636.78;5041546;27;105387;-57
2021/12/27 09:01:05;;;;;;;18.65;6.93;;;;;;;9.17;64.64;101625.91;5052079;27;102454;-57
2021/12/27 09:03:35;;;;;;;18.67;6.75;;;;;;;9.18;64.35;101624.84;5047741;27;102289;-57
2021/12/27 09:06:02;;;;;;;15.02;6.18;;;;;;;9.16;64.00;101618.84;5045304;27;102263;-56
2021/12/27 09:08:33;;;;;;;12.85;6.15;;;;;;;9.18;64.33;101630.25;5044470;27;103907;-57
2021/12/27 09:10:59;;;;;;;15.88;6.88;;;;;;;9.16;63.95;101616.13;5043282;27;102561;-57
2021/12/27 09:13:27;;;;;;;13.30;5.55;;;;;;;9.19;64.60;101606.66;5035451;27;102298;-57
2021/12/27 09:15:55;;;;;;;16.67;6.90;;;;;;;9.18;64.60;101605.00;5043721;27;102239;-56
2021/12/27 09:18:22;;;;;;;18.20;6.63;;;;;;;9.18;64.01;101611.25;5039642;27;103888;-56
2021/12/27 09:20:49;;;;;;;13.80;6.30;;;;;;;9.17;64.76;101597.94;5040170;27;102061;-56
2021/12/27 09:23:15;;;;;;;17.77;5.65;;;;;;;9.19;64.84;101602.03;5036006;27;102242;-56
2021/12/27 09:25:45;;;;;;;10.52;5.95;;;;;;;9.17;64.64;101598.75;5038510;27;104818;-56
2021/12/27 09:28:13;;;;;;;15.10;6.28;;;;;;;9.19;64.10;101596.59;5040100;27;103716;-56
2021/12/27 09:30:40;;;;;;;12.68;6.35;;;;;;;9.18;64.17;101589.53;5038621;27;102241;-56
2021/12/27 09:33:06;;;;;;;11.10;7.00;;;;;;;9.19;64.10;101580.31;5042740;27;102546;-57
2021/12/27 09:35:34;;;;;;;13.30;6.15;;;;;;;9.18;64.01;101573.22;5037353;27;103719;-57
2021/12/27 09:38:01;;;;;;;10.55;5.93;;;;;;;9.19;64.93;101564.00;5036446;27;104348;-56
2021/12/27 09:40:27;;;;;;;13.00;6.43;;;;;;;9.19;63.92;101569.44;5036454;27;102850;-57
2021/12/27 09:42:56;;;;;;;9.13;6.07;;;;;;;9.18;64.09;101567.81;5048762;27;102141;-57
2021/12/27 09:45:22;;;;;;;11.27;6.50;;;;;;;9.19;64.42;101563.19;5050381;27;102610;-57
2021/12/27 09:47:50;;;;;;;14.90;7.78;;;;;;;9.19;64.67;101555.03;5041877;27;103885;-57
2021/12/27 09:50:20;;;;;;;15.10;7.47;;;;;;;9.19;64.20;101550.44;5037612;27;102092;-57
2021/12/27 09:52:47;;;;;;;14.82;8.00;;;;;;;9.19;63.97;101553.16;5038987;27;102492;-57
2021/12/27 09:55:13;;;;;;;14.30;7.75;;;;;;;9.19;64.75;101544.19;5046517;27;102748;-56
2021/12/27 09:57:40;;;;;;;10.70;7.43;;;;;;;9.17;64.72;101536.28;5046813;27;103670;-56
2021/12/27 10:00:11;;;;;;;14.10;7.83;;;;;;;9.18;64.72;101532.50;5051975;27;102224;-56
2021/12/27 10:02:39;;;;;;;13.63;7.32;;;;;;;9.18;64.70;101532.50;5036292;27;103750;-56
2021/12/27 10:05:07;;;;;;;12.13;7.53;;;;;;;9.18;63.85;101535.22;5040267;27;102843;-56
2021/12/27 10:07:53;;;;;;;12.23;8.43;;;;;;;9.18;64.03;101528.97;5049086;27;105115;-56
2021/12/27 10:10:22;;;;;;;13.88;8.05;;;;;;;9.17;63.87;101530.03;5039165;27;102691;-56
2021/12/27 10:12:50;;;;;;;14.65;8.10;;;;;;;9.18;64.30;101528.97;5034677;27;103767;-56
2021/12/27 10:15:19;;;;;;;12.85;7.57;;;;;;;9.16;64.40;101526.50;5039393;27;102851;-57
2021/12/27 10:17:47;;;;;;;16.17;8.23;;;;;;;9.17;64.38;101527.31;5036557;27;103892;-56
2021/12/27 10:20:17;;;;;;;16.42;8.70;;;;;;;9.15;63.74;101525.66;5041265;27;102517;-56
2021/12/27 10:22:45;;;;;;;12.05;8.43;;;;;;;9.15;64.12;101530.25;5043620;27;103171;-56
2021/12/27 10:25:16;;;;;;;11.90;7.80;;;;;;;9.15;64.51;101525.66;5037421;27;102587;-57
2021/12/27 10:27:43;;;;;;;14.73;8.23;;;;;;;9.15;63.82;101519.41;5038939;27;103933;-56
2021/12/27 10:30:11;;;;;;;12.27;7.93;;;;;;;9.15;64.13;101513.97;5038452;27;101976;-56
2021/12/27 10:32:39;;;;;;;10.48;7.13;;;;;;;9.14;63.90;101512.31;5029784;27;102937;-57
2021/12/27 10:35:07;;;;;;;11.43;7.28;;;;;;;9.13;64.04;101491.66;5043489;27;102775;-55
2021/12/27 10:37:36;;;;;;;10.02;7.25;;;;;;;9.14;64.64;101504.19;5037569;27;103907;-56
2021/12/27 10:40:05;;;;;;;13.27;7.50;;;;;;;9.13;64.04;101499.81;5037440;27;102470;-57
2021/12/27 10:42:37;;;;;;;11.15;7.60;;;;;;;9.13;63.81;101505.25;5041645;27;102137;-56
2021/12/27 10:45:11;;;;;;;12.43;7.65;;;;;;;9.12;64.20;101503.59;5041799;27;103920;-56
2021/12/27 10:47:42;;;;;;;11.38;6.70;;;;;;;9.13;64.11;101507.97;5035929;27;103847;-56
2021/12/27 10:50:12;;;;;;;10.70;7.05;;;;;;;9.12;64.52;101509.00;5044359;27;105564;-56
2021/12/27 10:52:44;;;;;;;10.98;7.20;;;;;;;9.11;64.41;101501.94;5045159;27;102030;-56
2021/12/27 10:55:11;;;;;;;10.90;7.45;;;;;;;9.12;64.39;101503.59;5045208;27;102238;-57
2021/12/27 10:57:38;;;;;;;13.45;7.75;;;;;;;9.11;63.74;101480.22;5045917;27;104060;-54
2021/12/27 11:00:19;;;;;;;14.27;7.50;;;;;;;9.12;64.07;101473.72;5040815;27;102117;-57
2021/12/27 11:02:47;;;;;;;11.23;6.72;;;;;;;9.11;63.68;101469.34;5043827;27;102084;-57
2021/12/27 11:05:16;;;;;;;13.23;7.18;;;;;;;9.12;64.43;101473.72;5036788;27;102396;-57
2021/12/27 11:07:43;;;;;;;11.80;7.70;;;;;;;9.12;64.25;101473.72;5039603;27;103785;-58
2021/12/27 11:10:11;;;;;;;13.23;7.00;;;;;;;9.11;64.58;101463.94;5038371;27;102467;-58
2021/12/27 11:12:38;;;;;;;11.30;7.20;;;;;;;9.11;64.65;101469.34;5046956;27;102225;-57
2021/12/27 11:15:09;;;;;;;14.35;8.07;;;;;;;9.11;63.75;101463.94;5046885;27;102705;-57
2021/12/27 11:17:37;;;;;;;13.52;7.63;;;;;;;9.11;64.65;101463.94;5045127;27;103912;-57
2021/12/27 11:20:08;;;;;;;14.45;7.95;;;;;;;9.10;64.21;101465.81;5049640;27;102200;-57
2021/12/27 11:22:37;;;;;;;16.17;8.07;;;;;;;9.10;64.58;101470.44;5039608;27;102224;-57
2021/12/27 11:25:06;;;;;;;14.63;7.30;;;;;;;9.10;64.56;101456.84;5042694;27;102171;-57
2021/12/27 11:27:34;;;;;;;13.30;7.90;;;;;;;9.10;63.73;101457.69;5050821;27;104016;-58
2021/12/27 11:30:09;;;;;;;14.57;8.00;;;;;;;9.11;63.97;101458.50;5044403;27;102454;-57